sensor_id;sensor_type;location;lat;lon;timestamp;P1;durP1;ratioP1;P2;durP2;ratioP2
6878;SDS011;3478;51.462;7.338;2023-08-12T00:00:20;24.90;;;21.97;;
6878;SDS011;3478;51.462;7.338;2023-08-12T00:05:23;29.70;;;22.53;;
6878;SDS011;3478;51.462;7.338;2023-08-12T00:10:25;26.33;;;21.60;;
6878;SDS011;3478;51.462;7.338;2023-08-12T00:15:27;24.30;;;21.70;;
6878;SDS011;3478;51.462;7.338;2023-08-12T00:20:30;28.40;;;23.40;;
6878;SDS011;3478;51.462;7.338;2023-08-12T00:25:32;26.23;;;21.10;;
6878;SDS011;3478;51.462;7.338;2023-08-12T00:30:34;26.27;;;21.77;;
6878;SDS011;3478;51.462;7.338;2023-08-12T00:35:37;24.90;;;21.67;;
6878;SDS011;3478;51.462;7.338;2023-08-12T00:40:39;21.67;;;18.37;;
6878;SDS011;3478;51.462;7.338;2023-08-12T00:45:41;21.17;;;17.67;;
6878;SDS011;3478;51.462;7.338;2023-08-12T00:50:44;20.63;;;18.43;;
6878;SDS011;3478;51.462;7.338;2023-08-12T00:55:47;21.17;;;18.57;;
6878;SDS011;3478;51.462;7.338;2023-08-12T01:00:49;20.63;;;17.00;;
6878;SDS011;3478;51.462;7.338;2023-08-12T01:05:52;20.27;;;17.80;;
6878;SDS011;3478;51.462;7.338;2023-08-12T01:10:56;22.77;;;19.90;;
6878;SDS011;3478;51.462;7.338;2023-08-12T01:16:03;22.53;;;19.70;;
6878;SDS011;3478;51.462;7.338;2023-08-12T01:21:11;26.47;;;20.73;;
6878;SDS011;3478;51.462;7.338;2023-08-12T01:26:19;24.87;;;19.13;;
6878;SDS011;3478;51.462;7.338;2023-08-12T01:31:23;19.93;;;17.00;;
6878;SDS011;3478;51.462;7.338;2023-08-12T01:36:32;18.90;;;15.00;;
6878;SDS011;3478;51.462;7.338;2023-08-12T01:41:38;16.93;;;13.80;;
6878;SDS011;3478;51.462;7.338;2023-08-12T01:46:43;19.43;;;16.50;;
6878;SDS011;3478;51.462;7.338;2023-08-12T01:51:45;17.47;;;15.67;;
6878;SDS011;3478;51.462;7.338;2023-08-12T01:56:48;16.17;;;14.60;;
6878;SDS011;3478;51.462;7.338;2023-08-12T02:01:50;19.53;;;16.83;;
6878;SDS011;3478;51.462;7.338;2023-08-12T02:06:52;20.90;;;16.60;;
6878;SDS011;3478;51.462;7.338;2023-08-12T02:11:55;20.23;;;18.10;;
6878;SDS011;3478;51.462;7.338;2023-08-12T02:16:57;19.63;;;16.40;;
6878;SDS011;3478;51.462;7.338;2023-08-12T02:21:59;19.33;;;17.47;;
6878;SDS011;3478;51.462;7.338;2023-08-12T02:27:05;17.60;;;15.73;;
6878;SDS011;3478;51.462;7.338;2023-08-12T02:32:06;19.70;;;17.77;;
6878;SDS011;3478;51.462;7.338;2023-08-12T02:37:08;18.80;;;16.70;;
6878;SDS011;3478;51.462;7.338;2023-08-12T02:42:14;16.67;;;14.87;;
6878;SDS011;3478;51.462;7.338;2023-08-12T02:47:15;18.27;;;16.40;;
6878;SDS011;3478;51.462;7.338;2023-08-12T02:52:17;17.20;;;15.50;;
6878;SDS011;3478;51.462;7.338;2023-08-12T02:57:20;15.77;;;13.50;;
6878;SDS011;3478;51.462;7.338;2023-08-12T03:02:22;16.20;;;13.20;;
6878;SDS011;3478;51.462;7.338;2023-08-12T03:07:24;15.77;;;14.10;;
6878;SDS011;3478;51.462;7.338;2023-08-12T03:12:27;15.67;;;14.07;;
6878;SDS011;3478;51.462;7.338;2023-08-12T03:17:29;15.60;;;14.10;;
6878;SDS011;3478;51.462;7.338;2023-08-12T03:22:31;17.07;;;13.97;;
6878;SDS011;3478;51.462;7.338;2023-08-12T03:27:34;16.00;;;13.80;;
6878;SDS011;3478;51.462;7.338;2023-08-12T03:32:36;16.57;;;14.87;;
6878;SDS011;3478;51.462;7.338;2023-08-12T03:37:38;20.40;;;15.23;;
6878;SDS011;3478;51.462;7.338;2023-08-12T03:42:41;18.00;;;13.67;;
6878;SDS011;3478;51.462;7.338;2023-08-12T03:47:43;14.23;;;12.83;;
6878;SDS011;3478;51.462;7.338;2023-08-12T03:52:45;15.33;;;13.63;;
6878;SDS011;3478;51.462;7.338;2023-08-12T03:57:48;13.70;;;12.27;;
6878;SDS011;3478;51.462;7.338;2023-08-12T04:02:51;15.23;;;13.53;;
6878;SDS011;3478;51.462;7.338;2023-08-12T04:07:53;16.13;;;14.37;;
6878;SDS011;3478;51.462;7.338;2023-08-12T04:12:56;17.70;;;14.23;;
6878;SDS011;3478;51.462;7.338;2023-08-12T04:17:57;14.40;;;13.07;;
6878;SDS011;3478;51.462;7.338;2023-08-12T04:22:59;13.90;;;12.50;;
6878;SDS011;3478;51.462;7.338;2023-08-12T04:28:03;16.87;;;14.27;;
6878;SDS011;3478;51.462;7.338;2023-08-12T04:33:05;14.60;;;13.20;;
6878;SDS011;3478;51.462;7.338;2023-08-12T04:38:07;14.00;;;12.57;;
6878;SDS011;3478;51.462;7.338;2023-08-12T04:43:10;13.83;;;12.50;;
6878;SDS011;3478;51.462;7.338;2023-08-12T04:48:13;16.17;;;13.17;;
6878;SDS011;3478;51.462;7.338;2023-08-12T04:53:15;18.33;;;12.77;;
6878;SDS011;3478;51.462;7.338;2023-08-12T04:58:18;13.50;;;12.30;;
6878;SDS011;3478;51.462;7.338;2023-08-12T05:03:20;13.50;;;12.20;;
6878;SDS011;3478;51.462;7.338;2023-08-12T05:08:22;12.90;;;11.60;;
6878;SDS011;3478;51.462;7.338;2023-08-12T05:13:25;14.63;;;13.07;;
6878;SDS011;3478;51.462;7.338;2023-08-12T05:18:28;12.90;;;10.67;;
6878;SDS011;3478;51.462;7.338;2023-08-12T05:23:30;10.60;;;9.70;;
6878;SDS011;3478;51.462;7.338;2023-08-12T05:28:33;10.60;;;9.70;;
6878;SDS011;3478;51.462;7.338;2023-08-12T05:33:34;10.77;;;9.60;;
6878;SDS011;3478;51.462;7.338;2023-08-12T05:38:36;9.70;;;8.70;;
6878;SDS011;3478;51.462;7.338;2023-08-12T05:43:39;11.83;;;9.63;;
6878;SDS011;3478;51.462;7.338;2023-08-12T05:48:41;9.20;;;8.30;;
6878;SDS011;3478;51.462;7.338;2023-08-12T05:53:43;8.50;;;7.60;;
6878;SDS011;3478;51.462;7.338;2023-08-12T05:58:46;7.30;;;6.70;;
6878;SDS011;3478;51.462;7.338;2023-08-12T06:03:48;6.67;;;6.20;;
6878;SDS011;3478;51.462;7.338;2023-08-12T06:08:50;6.60;;;6.00;;
6878;SDS011;3478;51.462;7.338;2023-08-12T06:13:53;7.90;;;7.10;;
6878;SDS011;3478;51.462;7.338;2023-08-12T06:18:55;9.77;;;7.17;;
6878;SDS011;3478;51.462;7.338;2023-08-12T06:23:57;7.77;;;7.07;;
6878;SDS011;3478;51.462;7.338;2023-08-12T06:29:00;6.47;;;5.87;;
6878;SDS011;3478;51.462;7.338;2023-08-12T06:34:02;6.53;;;6.03;;
6878;SDS011;3478;51.462;7.338;2023-08-12T06:39:04;6.73;;;6.07;;
6878;SDS011;3478;51.462;7.338;2023-08-12T06:44:07;8.93;;;5.73;;
6878;SDS011;3478;51.462;7.338;2023-08-12T06:49:09;6.27;;;5.43;;
6878;SDS011;3478;51.462;7.338;2023-08-12T06:54:11;5.10;;;4.70;;
6878;SDS011;3478;51.462;7.338;2023-08-12T06:59:14;7.07;;;4.90;;
6878;SDS011;3478;51.462;7.338;2023-08-12T07:04:16;4.50;;;4.17;;
6878;SDS011;3478;51.462;7.338;2023-08-12T07:09:18;4.53;;;4.23;;
6878;SDS011;3478;51.462;7.338;2023-08-12T07:14:21;4.37;;;4.07;;
6878;SDS011;3478;51.462;7.338;2023-08-12T07:19:23;6.43;;;3.30;;
6878;SDS011;3478;51.462;7.338;2023-08-12T07:24:25;4.40;;;3.97;;
6878;SDS011;3478;51.462;7.338;2023-08-12T07:29:28;4.37;;;4.00;;
6878;SDS011;3478;51.462;7.338;2023-08-12T07:34:30;4.40;;;4.10;;
6878;SDS011;3478;51.462;7.338;2023-08-12T07:39:31;4.07;;;3.77;;
6878;SDS011;3478;51.462;7.338;2023-08-12T07:44:34;3.90;;;3.50;;
6878;SDS011;3478;51.462;7.338;2023-08-12T07:49:37;4.37;;;4.07;;
6878;SDS011;3478;51.462;7.338;2023-08-12T07:54:39;3.77;;;3.50;;
6878;SDS011;3478;51.462;7.338;2023-08-12T07:59:42;3.43;;;3.03;;
6878;SDS011;3478;51.462;7.338;2023-08-12T08:04:44;4.30;;;3.63;;
6878;SDS011;3478;51.462;7.338;2023-08-12T08:09:50;3.23;;;3.03;;
6878;SDS011;3478;51.462;7.338;2023-08-12T08:14:53;3.27;;;2.97;;
6878;SDS011;3478;51.462;7.338;2023-08-12T08:19:55;3.70;;;3.50;;
6878;SDS011;3478;51.462;7.338;2023-08-12T08:24:57;3.40;;;3.10;;
6878;SDS011;3478;51.462;7.338;2023-08-12T08:30:00;3.50;;;3.20;;
6878;SDS011;3478;51.462;7.338;2023-08-12T08:35:03;2.90;;;2.53;;
6878;SDS011;3478;51.462;7.338;2023-08-12T08:40:05;3.00;;;2.27;;
6878;SDS011;3478;51.462;7.338;2023-08-12T08:45:11;2.03;;;1.93;;
6878;SDS011;3478;51.462;7.338;2023-08-12T08:50:14;2.00;;;1.90;;
6878;SDS011;3478;51.462;7.338;2023-08-12T08:55:16;3.70;;;2.30;;
6878;SDS011;3478;51.462;7.338;2023-08-12T09:00:20;4.00;;;3.37;;
6878;SDS011;3478;51.462;7.338;2023-08-12T09:05:22;4.43;;;4.10;;
6878;SDS011;3478;51.462;7.338;2023-08-12T09:10:25;3.70;;;3.50;;
6878;SDS011;3478;51.462;7.338;2023-08-12T09:15:30;5.07;;;4.57;;
6878;SDS011;3478;51.462;7.338;2023-08-12T09:20:32;4.17;;;3.97;;
6878;SDS011;3478;51.462;7.338;2023-08-12T09:25:34;4.37;;;4.17;;
6878;SDS011;3478;51.462;7.338;2023-08-12T09:30:38;4.33;;;4.13;;
6878;SDS011;3478;51.462;7.338;2023-08-12T09:35:40;3.50;;;3.30;;
6878;SDS011;3478;51.462;7.338;2023-08-12T09:40:46;2.87;;;2.77;;
6878;SDS011;3478;51.462;7.338;2023-08-12T09:45:49;2.23;;;2.13;;
6878;SDS011;3478;51.462;7.338;2023-08-12T09:50:51;2.10;;;2.00;;
6878;SDS011;3478;51.462;7.338;2023-08-12T09:55:54;4.40;;;2.13;;
6878;SDS011;3478;51.462;7.338;2023-08-12T10:00:59;1.83;;;1.70;;
6878;SDS011;3478;51.462;7.338;2023-08-12T10:06:02;1.70;;;1.60;;
6878;SDS011;3478;51.462;7.338;2023-08-12T10:11:06;1.60;;;1.50;;
6878;SDS011;3478;51.462;7.338;2023-08-12T10:16:09;1.33;;;1.23;;
6878;SDS011;3478;51.462;7.338;2023-08-12T10:21:12;1.27;;;1.17;;
6878;SDS011;3478;51.462;7.338;2023-08-12T10:26:15;1.20;;;1.10;;
6878;SDS011;3478;51.462;7.338;2023-08-12T10:31:19;2.20;;;1.17;;
6878;SDS011;3478;51.462;7.338;2023-08-12T10:36:21;1.30;;;0.70;;
6878;SDS011;3478;51.462;7.338;2023-08-12T10:41:24;0.70;;;0.50;;
6878;SDS011;3478;51.462;7.338;2023-08-12T10:46:30;0.80;;;0.63;;
6878;SDS011;3478;51.462;7.338;2023-08-12T10:51:40;2.63;;;1.63;;
6878;SDS011;3478;51.462;7.338;2023-08-12T11:02:15;1.30;;;0.87;;
6878;SDS011;3478;51.462;7.338;2023-08-12T11:07:19;1.00;;;0.67;;
6878;SDS011;3478;51.462;7.338;2023-08-12T11:12:29;1.27;;;0.87;;
6878;SDS011;3478;51.462;7.338;2023-08-12T11:17:33;1.10;;;0.70;;
6878;SDS011;3478;51.462;7.338;2023-08-12T11:22:36;2.03;;;0.57;;
6878;SDS011;3478;51.462;7.338;2023-08-12T11:27:40;2.07;;;0.70;;
6878;SDS011;3478;51.462;7.338;2023-08-12T11:32:45;2.50;;;0.60;;
6878;SDS011;3478;51.462;7.338;2023-08-12T11:37:48;0.80;;;0.70;;
6878;SDS011;3478;51.462;7.338;2023-08-12T11:42:54;1.50;;;0.70;;
6878;SDS011;3478;51.462;7.338;2023-08-12T11:47:57;3.40;;;1.43;;
6878;SDS011;3478;51.462;7.338;2023-08-12T11:52:59;0.90;;;0.63;;
6878;SDS011;3478;51.462;7.338;2023-08-12T11:58:01;2.60;;;0.70;;
6878;SDS011;3478;51.462;7.338;2023-08-12T12:03:04;1.80;;;0.70;;
6878;SDS011;3478;51.462;7.338;2023-08-12T12:08:07;2.57;;;1.10;;
6878;SDS011;3478;51.462;7.338;2023-08-12T12:13:10;1.07;;;0.63;;
6878;SDS011;3478;51.462;7.338;2023-08-12T12:18:14;0.70;;;0.53;;
6878;SDS011;3478;51.462;7.338;2023-08-12T12:23:16;2.07;;;0.63;;
6878;SDS011;3478;51.462;7.338;2023-08-12T12:28:18;0.60;;;0.40;;
6878;SDS011;3478;51.462;7.338;2023-08-12T12:33:21;3.00;;;0.70;;
6878;SDS011;3478;51.462;7.338;2023-08-12T12:38:23;0.57;;;0.47;;
6878;SDS011;3478;51.462;7.338;2023-08-12T12:43:25;0.50;;;0.40;;
6878;SDS011;3478;51.462;7.338;2023-08-12T12:48:29;1.87;;;0.50;;
6878;SDS011;3478;51.462;7.338;2023-08-12T12:53:30;0.93;;;0.50;;
6878;SDS011;3478;51.462;7.338;2023-08-12T12:58:33;0.80;;;0.50;;
6878;SDS011;3478;51.462;7.338;2023-08-12T13:03:37;0.80;;;0.40;;
6878;SDS011;3478;51.462;7.338;2023-08-12T13:08:39;0.70;;;0.40;;
6878;SDS011;3478;51.462;7.338;2023-08-12T13:13:40;0.57;;;0.40;;
6878;SDS011;3478;51.462;7.338;2023-08-12T13:18:44;0.87;;;0.50;;
6878;SDS011;3478;51.462;7.338;2023-08-12T13:23:45;2.13;;;0.63;;
6878;SDS011;3478;51.462;7.338;2023-08-12T13:28:47;1.13;;;1.03;;
6878;SDS011;3478;51.462;7.338;2023-08-12T13:33:51;1.90;;;1.17;;
6878;SDS011;3478;51.462;7.338;2023-08-12T13:38:52;2.00;;;0.87;;
6878;SDS011;3478;51.462;7.338;2023-08-12T13:43:54;1.50;;;1.40;;
6878;SDS011;3478;51.462;7.338;2023-08-12T13:48:57;2.10;;;2.00;;
6878;SDS011;3478;51.462;7.338;2023-08-12T13:53:59;2.90;;;2.80;;
6878;SDS011;3478;51.462;7.338;2023-08-12T13:59:01;2.40;;;2.20;;
6878;SDS011;3478;51.462;7.338;2023-08-12T14:04:05;2.67;;;2.50;;
6878;SDS011;3478;51.462;7.338;2023-08-12T14:09:06;3.47;;;3.27;;
6878;SDS011;3478;51.462;7.338;2023-08-12T14:14:09;4.23;;;4.00;;
6878;SDS011;3478;51.462;7.338;2023-08-12T14:19:12;7.43;;;6.93;;
6878;SDS011;3478;51.462;7.338;2023-08-12T14:24:16;6.03;;;5.63;;
6878;SDS011;3478;51.462;7.338;2023-08-12T14:29:18;9.80;;;8.90;;
6878;SDS011;3478;51.462;7.338;2023-08-12T14:34:21;7.60;;;6.90;;
6878;SDS011;3478;51.462;7.338;2023-08-12T14:39:23;7.90;;;6.10;;
6878;SDS011;3478;51.462;7.338;2023-08-12T14:44:25;6.80;;;5.60;;
6878;SDS011;3478;51.462;7.338;2023-08-12T14:49:28;6.47;;;4.93;;
6878;SDS011;3478;51.462;7.338;2023-08-12T14:54:30;4.93;;;4.67;;
6878;SDS011;3478;51.462;7.338;2023-08-12T14:59:32;4.53;;;4.33;;
6878;SDS011;3478;51.462;7.338;2023-08-12T15:04:35;4.90;;;4.53;;
6878;SDS011;3478;51.462;7.338;2023-08-12T15:09:37;3.57;;;3.47;;
6878;SDS011;3478;51.462;7.338;2023-08-12T15:14:39;3.37;;;3.17;;
6878;SDS011;3478;51.462;7.338;2023-08-12T15:19:42;3.63;;;3.33;;
6878;SDS011;3478;51.462;7.338;2023-08-12T15:24:44;4.17;;;3.87;;
6878;SDS011;3478;51.462;7.338;2023-08-12T15:29:46;6.10;;;5.70;;
6878;SDS011;3478;51.462;7.338;2023-08-12T15:34:49;7.70;;;7.00;;
6878;SDS011;3478;51.462;7.338;2023-08-12T15:39:51;8.33;;;7.73;;
6878;SDS011;3478;51.462;7.338;2023-08-12T15:44:53;7.50;;;7.00;;
6878;SDS011;3478;51.462;7.338;2023-08-12T15:49:56;6.30;;;5.70;;
6878;SDS011;3478;51.462;7.338;2023-08-12T15:54:58;7.27;;;6.70;;
6878;SDS011;3478;51.462;7.338;2023-08-12T16:00:00;5.80;;;5.20;;
6878;SDS011;3478;51.462;7.338;2023-08-12T16:05:06;4.27;;;3.97;;
6878;SDS011;3478;51.462;7.338;2023-08-12T16:10:08;4.10;;;3.70;;
6878;SDS011;3478;51.462;7.338;2023-08-12T16:15:10;3.33;;;3.10;;
6878;SDS011;3478;51.462;7.338;2023-08-12T16:20:13;4.07;;;3.87;;
6878;SDS011;3478;51.462;7.338;2023-08-12T16:25:15;5.30;;;3.57;;
6878;SDS011;3478;51.462;7.338;2023-08-12T16:30:18;2.60;;;2.03;;
6878;SDS011;3478;51.462;7.338;2023-08-12T16:35:21;2.43;;;2.07;;
6878;SDS011;3478;51.462;7.338;2023-08-12T16:40:23;1.73;;;1.23;;
6878;SDS011;3478;51.462;7.338;2023-08-12T16:45:27;1.50;;;1.33;;
6878;SDS011;3478;51.462;7.338;2023-08-12T16:50:30;0.90;;;0.80;;
6878;SDS011;3478;51.462;7.338;2023-08-12T16:55:32;3.20;;;1.20;;
6878;SDS011;3478;51.462;7.338;2023-08-12T17:00:34;1.60;;;1.00;;
6878;SDS011;3478;51.462;7.338;2023-08-12T17:05:37;1.70;;;1.07;;
6878;SDS011;3478;51.462;7.338;2023-08-12T17:10:40;1.20;;;1.00;;
6878;SDS011;3478;51.462;7.338;2023-08-12T17:15:42;1.03;;;0.90;;
6878;SDS011;3478;51.462;7.338;2023-08-12T17:20:45;4.23;;;1.20;;
6878;SDS011;3478;51.462;7.338;2023-08-12T17:25:47;2.90;;;1.47;;
6878;SDS011;3478;51.462;7.338;2023-08-12T17:30:49;4.13;;;1.87;;
6878;SDS011;3478;51.462;7.338;2023-08-12T17:35:52;2.20;;;1.63;;
6878;SDS011;3478;51.462;7.338;2023-08-12T17:40:55;2.90;;;1.43;;
6878;SDS011;3478;51.462;7.338;2023-08-12T17:45:57;2.33;;;1.13;;
6878;SDS011;3478;51.462;7.338;2023-08-12T17:51:00;8.97;;;1.20;;
6878;SDS011;3478;51.462;7.338;2023-08-12T17:56:02;1.90;;;0.90;;
6878;SDS011;3478;51.462;7.338;2023-08-12T18:01:04;2.97;;;1.80;;
6878;SDS011;3478;51.462;7.338;2023-08-12T18:06:07;1.83;;;1.70;;
6878;SDS011;3478;51.462;7.338;2023-08-12T18:11:09;1.77;;;1.30;;
6878;SDS011;3478;51.462;7.338;2023-08-12T18:16:11;2.40;;;1.17;;
6878;SDS011;3478;51.462;7.338;2023-08-12T18:21:17;2.30;;;1.20;;
6878;SDS011;3478;51.462;7.338;2023-08-12T18:26:19;2.30;;;1.80;;
6878;SDS011;3478;51.462;7.338;2023-08-12T18:31:21;1.70;;;1.60;;
6878;SDS011;3478;51.462;7.338;2023-08-12T18:36:24;1.50;;;1.40;;
6878;SDS011;3478;51.462;7.338;2023-08-12T18:41:25;4.00;;;2.13;;
6878;SDS011;3478;51.462;7.338;2023-08-12T18:46:27;3.53;;;1.90;;
6878;SDS011;3478;51.462;7.338;2023-08-12T18:51:30;3.40;;;1.40;;
6878;SDS011;3478;51.462;7.338;2023-08-12T18:56:32;2.40;;;2.03;;
6878;SDS011;3478;51.462;7.338;2023-08-12T19:01:34;3.03;;;2.70;;
6878;SDS011;3478;51.462;7.338;2023-08-12T19:06:38;6.00;;;2.10;;
6878;SDS011;3478;51.462;7.338;2023-08-12T19:11:39;4.33;;;2.10;;
6878;SDS011;3478;51.462;7.338;2023-08-12T19:16:41;2.63;;;2.43;;
6878;SDS011;3478;51.462;7.338;2023-08-12T19:21:44;12.47;;;4.20;;
6878;SDS011;3478;51.462;7.338;2023-08-12T19:26:47;5.20;;;3.30;;
6878;SDS011;3478;51.462;7.338;2023-08-12T19:31:49;8.33;;;2.77;;
6878;SDS011;3478;51.462;7.338;2023-08-12T19:36:52;6.20;;;2.87;;
6878;SDS011;3478;51.462;7.338;2023-08-12T19:41:54;2.73;;;2.30;;
6878;SDS011;3478;51.462;7.338;2023-08-12T19:46:56;3.70;;;2.80;;
6878;SDS011;3478;51.462;7.338;2023-08-12T19:51:59;2.83;;;2.63;;
6878;SDS011;3478;51.462;7.338;2023-08-12T19:57:01;4.43;;;3.70;;
6878;SDS011;3478;51.462;7.338;2023-08-12T20:02:03;4.60;;;4.20;;
6878;SDS011;3478;51.462;7.338;2023-08-12T20:07:06;6.60;;;4.20;;
6878;SDS011;3478;51.462;7.338;2023-08-12T20:12:08;4.60;;;3.63;;
6878;SDS011;3478;51.462;7.338;2023-08-12T20:17:10;8.07;;;4.77;;
6878;SDS011;3478;51.462;7.338;2023-08-12T20:22:13;9.37;;;4.00;;
6878;SDS011;3478;51.462;7.338;2023-08-12T20:27:15;3.70;;;3.40;;
6878;SDS011;3478;51.462;7.338;2023-08-12T20:32:17;4.27;;;3.77;;
6878;SDS011;3478;51.462;7.338;2023-08-12T20:37:20;4.10;;;3.60;;
6878;SDS011;3478;51.462;7.338;2023-08-12T20:42:22;3.83;;;2.87;;
6878;SDS011;3478;51.462;7.338;2023-08-12T20:47:24;7.37;;;3.50;;
6878;SDS011;3478;51.462;7.338;2023-08-12T20:52:29;6.27;;;3.47;;
6878;SDS011;3478;51.462;7.338;2023-08-12T20:57:31;4.33;;;3.93;;
6878;SDS011;3478;51.462;7.338;2023-08-12T21:02:33;6.57;;;3.30;;
6878;SDS011;3478;51.462;7.338;2023-08-12T21:07:36;9.83;;;3.70;;
6878;SDS011;3478;51.462;7.338;2023-08-12T21:12:38;7.77;;;4.40;;
6878;SDS011;3478;51.462;7.338;2023-08-12T21:17:40;3.83;;;3.07;;
6878;SDS011;3478;51.462;7.338;2023-08-12T21:22:44;4.97;;;3.33;;
6878;SDS011;3478;51.462;7.338;2023-08-12T21:27:47;3.50;;;3.20;;
6878;SDS011;3478;51.462;7.338;2023-08-12T21:32:49;6.30;;;3.03;;
6878;SDS011;3478;51.462;7.338;2023-08-12T21:37:52;7.43;;;2.53;;
6878;SDS011;3478;51.462;7.338;2023-08-12T21:42:54;4.43;;;3.17;;
6878;SDS011;3478;51.462;7.338;2023-08-12T21:47:56;4.27;;;3.50;;
6878;SDS011;3478;51.462;7.338;2023-08-12T21:52:59;6.47;;;3.40;;
6878;SDS011;3478;51.462;7.338;2023-08-12T21:58:01;4.30;;;2.97;;
6878;SDS011;3478;51.462;7.338;2023-08-12T22:03:03;4.80;;;4.07;;
6878;SDS011;3478;51.462;7.338;2023-08-12T22:08:06;4.73;;;4.23;;
6878;SDS011;3478;51.462;7.338;2023-08-12T22:13:08;3.67;;;3.13;;
6878;SDS011;3478;51.462;7.338;2023-08-12T22:18:10;4.53;;;4.20;;
6878;SDS011;3478;51.462;7.338;2023-08-12T22:23:13;5.57;;;4.70;;
6878;SDS011;3478;51.462;7.338;2023-08-12T22:28:15;9.03;;;4.43;;
6878;SDS011;3478;51.462;7.338;2023-08-12T22:33:18;9.70;;;4.20;;
6878;SDS011;3478;51.462;7.338;2023-08-12T22:38:22;7.97;;;4.67;;
6878;SDS011;3478;51.462;7.338;2023-08-12T22:43:23;6.67;;;4.73;;
6878;SDS011;3478;51.462;7.338;2023-08-12T22:48:25;9.27;;;5.40;;
6878;SDS011;3478;51.462;7.338;2023-08-12T22:53:29;5.77;;;4.40;;
6878;SDS011;3478;51.462;7.338;2023-08-12T22:58:30;6.37;;;4.70;;
6878;SDS011;3478;51.462;7.338;2023-08-12T23:03:32;6.10;;;5.50;;
6878;SDS011;3478;51.462;7.338;2023-08-12T23:08:35;6.50;;;5.70;;
6878;SDS011;3478;51.462;7.338;2023-08-12T23:13:37;8.83;;;5.30;;
6878;SDS011;3478;51.462;7.338;2023-08-12T23:18:39;5.30;;;4.90;;
6878;SDS011;3478;51.462;7.338;2023-08-12T23:23:42;6.83;;;5.10;;
6878;SDS011;3478;51.462;7.338;2023-08-12T23:28:44;5.00;;;4.60;;
6878;SDS011;3478;51.462;7.338;2023-08-12T23:33:46;6.33;;;5.03;;
6878;SDS011;3478;51.462;7.338;2023-08-12T23:38:49;10.03;;;5.73;;
6878;SDS011;3478;51.462;7.338;2023-08-12T23:43:51;9.20;;;4.67;;
6878;SDS011;3478;51.462;7.338;2023-08-12T23:48:54;5.33;;;3.97;;
6878;SDS011;3478;51.462;7.338;2023-08-12T23:53:57;6.50;;;5.17;;
6878;SDS011;3478;51.462;7.338;2023-08-12T23:58:59;9.00;;;5.30;;
